createdAt,value
2018-03-07T00:00:56.520Z,75.50
2018-03-07T00:03:23.451Z,75.50
2018-03-07T00:05:50.379Z,75.60
2018-03-07T00:08:17.469Z,75.60
2018-03-07T00:10:44.518Z,75.60
2018-03-07T00:13:11.361Z,75.70
2018-03-07T00:15:38.311Z,75.70
2018-03-07T00:18:05.195Z,75.60
2018-03-07T00:20:33.126Z,75.70
2018-03-07T00:23:00.040Z,75.70
2018-03-07T00:25:27.121Z,75.70
2018-03-07T00:27:54.268Z,75.80
2018-03-07T00:30:21.257Z,75.80
2018-03-07T00:32:48.990Z,75.80
2018-03-07T00:35:15.924Z,75.60
2018-03-07T00:37:42.985Z,75.70
2018-03-07T00:40:09.840Z,75.80
2018-03-07T00:42:36.879Z,75.70
2018-03-07T00:45:03.816Z,75.70
2018-03-07T00:47:30.739Z,75.50
2018-03-07T00:49:57.545Z,74.90
2018-03-07T00:52:25.382Z,75.60
2018-03-07T00:54:52.430Z,75.50
2018-03-07T00:57:19.479Z,75.90
2018-03-07T00:59:46.300Z,75.70
2018-03-07T01:02:13.372Z,75.70
2018-03-07T01:04:40.425Z,75.60
2018-03-07T01:07:07.471Z,75.60
2018-03-07T01:09:34.306Z,75.60
2018-03-07T01:12:01.366Z,75.60
2018-03-07T01:14:28.305Z,75.60
2018-03-07T01:16:55.362Z,75.90
2018-03-07T01:19:22.301Z,76.10
2018-03-07T01:21:49.248Z,76.30
2018-03-07T01:24:16.306Z,76.30
2018-03-07T01:26:43.112Z,76.10
2018-03-07T01:29:10.199Z,76.00
2018-03-07T01:31:37.139Z,75.80
2018-03-07T01:34:04.189Z,75.40
2018-03-07T01:36:31.246Z,75.70
2018-03-07T01:38:58.296Z,75.90
2018-03-07T01:41:25.234Z,76.00
2018-03-07T01:43:52.048Z,75.80
2018-03-07T01:46:19.136Z,75.70
2018-03-07T01:48:46.074Z,76.00
2018-03-07T01:51:12.919Z,76.20
2018-03-07T01:53:39.877Z,76.40
2018-03-07T01:56:06.777Z,76.30
2018-03-07T01:58:33.758Z,76.50
2018-03-07T02:01:00.556Z,76.30
2018-03-07T02:03:28.165Z,76.10
2018-03-07T02:05:55.031Z,76.10
2018-03-07T02:08:21.859Z,75.90
2018-03-07T02:10:48.680Z,76.10
2018-03-07T02:13:15.572Z,76.10
2018-03-07T02:15:42.440Z,75.80
2018-03-07T02:18:10.121Z,75.70
2018-03-07T02:20:36.925Z,75.70
2018-03-07T02:23:04.494Z,75.80
2018-03-07T02:25:32.128Z,76.80
2018-03-07T02:27:58.929Z,76.30
2018-03-07T02:30:27.053Z,76.20
2018-03-07T02:32:53.926Z,76.30
2018-03-07T02:35:21.720Z,76.20
2018-03-07T02:37:48.561Z,76.20
2018-03-07T02:40:15.447Z,76.30
2018-03-07T02:42:42.325Z,76.50
2018-03-07T02:45:09.906Z,76.50
2018-03-07T02:47:36.796Z,76.40
2018-03-07T02:50:03.722Z,76.50
2018-03-07T02:52:30.578Z,76.60
2018-03-07T02:54:57.495Z,76.60
2018-03-07T02:57:24.383Z,76.70
2018-03-07T02:59:51.169Z,76.80
2018-03-07T03:02:18.878Z,77.10
2018-03-07T03:04:45.706Z,77.10
2018-03-07T03:07:12.496Z,77.30
2018-03-07T03:09:39.398Z,77.40
2018-03-07T03:12:06.222Z,77.40
2018-03-07T03:14:33.056Z,77.50
2018-03-07T03:17:00.562Z,77.80
2018-03-07T03:19:27.369Z,77.70
2018-03-07T03:21:54.304Z,77.60
2018-03-07T03:24:21.898Z,77.60
2018-03-07T03:26:48.761Z,77.50
2018-03-07T03:29:15.590Z,77.60
2018-03-07T03:31:42.407Z,77.60
2018-03-07T03:34:10.029Z,77.60
2018-03-07T03:36:36.841Z,77.60
2018-03-07T03:39:03.791Z,77.70
2018-03-07T03:41:30.590Z,77.60
2018-03-07T03:43:58.219Z,77.50
2018-03-07T03:46:25.064Z,77.50
2018-03-07T03:48:51.959Z,77.40
2018-03-07T03:51:18.837Z,77.30
2018-03-07T03:53:45.664Z,77.40
2018-03-07T03:56:12.546Z,77.30
2018-03-07T03:58:39.380Z,77.50
2018-03-07T04:01:06.210Z,77.60
2018-03-07T04:03:33.106Z,77.60
2018-03-07T04:06:00.661Z,77.80
2018-03-07T04:08:27.479Z,77.60
2018-03-07T04:10:54.318Z,77.60
2018-03-07T04:13:21.151Z,77.80
2018-03-07T04:15:47.978Z,77.90
2018-03-07T04:18:14.747Z,78.10
2018-03-07T04:20:41.665Z,78.00
2018-03-07T04:23:08.460Z,78.20
2018-03-07T04:25:36.122Z,78.00
2018-03-07T04:28:03.644Z,77.90
2018-03-07T04:30:30.512Z,77.70
2018-03-07T04:32:57.455Z,77.30
2018-03-07T04:35:24.299Z,77.10
2018-03-07T04:37:51.357Z,77.20
2018-03-07T04:40:18.509Z,77.20
2018-03-07T04:42:45.450Z,77.40
2018-03-07T04:45:19.417Z,77.70
2018-03-07T04:47:47.029Z,77.90
2018-03-07T04:50:13.821Z,77.80
2018-03-07T04:52:41.401Z,77.80
2018-03-07T04:55:08.297Z,77.70
2018-03-07T04:57:35.154Z,77.80
2018-03-07T05:00:02.820Z,78.40
2018-03-07T05:02:30.398Z,78.90
2018-03-07T05:04:57.970Z,78.40
2018-03-07T05:07:24.860Z,78.40
2018-03-07T05:09:51.637Z,78.50
2018-03-07T05:12:19.264Z,78.40
2018-03-07T05:14:46.063Z,78.20
2018-03-07T05:17:12.964Z,78.00
2018-03-07T05:19:39.850Z,77.80
2018-03-07T05:22:07.506Z,77.90
2018-03-07T05:24:35.096Z,77.90
2018-03-07T05:27:01.924Z,77.80
2018-03-07T05:29:28.750Z,77.60
2018-03-07T05:31:56.296Z,77.60
2018-03-07T05:34:23.123Z,77.60
2018-03-07T05:36:49.984Z,77.60
2018-03-07T05:39:16.803Z,77.60
2018-03-07T05:41:43.639Z,77.70
2018-03-07T05:44:10.574Z,77.60
2018-03-07T05:46:37.481Z,77.60
2018-03-07T05:49:05.109Z,77.60
2018-03-07T05:51:31.916Z,77.50
2018-03-07T05:53:59.202Z,77.40
2018-03-07T05:56:26.047Z,77.30
2018-03-07T05:58:52.968Z,77.30
2018-03-07T06:01:20.048Z,77.20
2018-03-07T06:03:47.096Z,77.30
2018-03-07T06:06:14.147Z,77.10
2018-03-07T06:08:41.195Z,77.10
2018-03-07T06:11:08.221Z,77.00
2018-03-07T06:13:35.179Z,77.10
2018-03-07T06:16:03.052Z,77.20
2018-03-07T06:18:29.896Z,76.60
2018-03-07T06:20:56.851Z,76.20
2018-03-07T06:23:23.900Z,76.10
2018-03-07T06:25:50.692Z,75.80
2018-03-07T06:28:18.403Z,75.60
2018-03-07T06:30:45.348Z,75.60
2018-03-07T06:33:12.192Z,75.60
2018-03-07T06:35:39.617Z,75.40
2018-03-07T06:38:06.496Z,75.50
2018-03-07T06:40:33.441Z,75.20
2018-03-07T06:43:00.389Z,75.20
2018-03-07T06:45:27.312Z,75.00
2018-03-07T06:47:54.183Z,74.70
2018-03-07T06:50:21.278Z,74.70
2018-03-07T06:52:48.907Z,74.80
2018-03-07T06:55:16.559Z,74.80
2018-03-07T06:57:43.615Z,74.70
2018-03-07T07:00:10.553Z,74.30
2018-03-07T07:02:37.507Z,74.40
2018-03-07T07:05:04.559Z,74.90
2018-03-07T07:07:31.609Z,75.10
2018-03-07T07:09:58.419Z,75.20
2018-03-07T07:12:26.217Z,74.50
2018-03-07T07:14:53.670Z,74.40
2018-03-07T07:17:22.234Z,74.50
2018-03-07T07:19:49.058Z,74.50
2018-03-07T07:22:16.053Z,74.50
2018-03-07T07:24:42.843Z,74.60
2018-03-07T07:27:10.533Z,74.50
2018-03-07T07:29:37.399Z,74.50
2018-03-07T07:32:04.342Z,74.50
2018-03-07T07:34:31.188Z,74.20
2018-03-07T07:36:58.248Z,74.20
2018-03-07T07:39:25.067Z,74.20
2018-03-07T07:41:51.907Z,74.00
2018-03-07T07:44:18.774Z,74.20
2018-03-07T07:46:45.832Z,74.30
2018-03-07T07:49:12.981Z,74.70
2018-03-07T07:51:40.032Z,75.00
2018-03-07T07:54:06.820Z,75.20
2018-03-07T07:56:34.642Z,75.10
2018-03-07T07:59:01.692Z,74.90
2018-03-07T08:01:28.637Z,74.90
2018-03-07T08:03:55.584Z,74.70
2018-03-07T08:06:23.219Z,76.00
2018-03-07T08:08:50.188Z,76.00
2018-03-07T08:11:24.058Z,76.90
2018-03-07T08:13:50.876Z,77.00
2018-03-07T08:16:18.482Z,77.70
2018-03-07T08:18:45.454Z,77.60
2018-03-07T08:21:12.373Z,77.80
2018-03-07T08:23:39.176Z,77.90
2018-03-07T08:26:06.807Z,78.20
2018-03-07T08:28:33.964Z,78.10
2018-03-07T08:31:01.006Z,78.30
2018-03-07T08:33:28.064Z,78.50
2018-03-07T08:35:54.858Z,78.60
2018-03-07T08:38:21.649Z,78.60
2018-03-07T08:40:48.698Z,78.90
2018-03-07T08:43:15.747Z,78.90
2018-03-07T08:45:42.899Z,79.10
2018-03-07T08:48:09.813Z,79.30
2018-03-07T08:50:36.795Z,79.30
2018-03-07T08:53:04.755Z,79.60
2018-03-07T08:55:31.581Z,79.80
2018-03-07T08:57:58.515Z,79.50
2018-03-07T09:00:25.814Z,79.50
2018-03-07T09:02:52.726Z,79.60
2018-03-07T09:05:19.919Z,79.80
2018-03-07T09:07:46.746Z,79.60
2018-03-07T09:10:14.666Z,79.70
2018-03-07T09:12:43.198Z,79.30
2018-03-07T09:15:15.149Z,79.30
2018-03-07T09:17:41.990Z,78.80
2018-03-07T09:20:08.958Z,78.60
2018-03-07T09:22:36.013Z,78.40
2018-03-07T09:25:02.901Z,78.10
2018-03-07T09:27:30.515Z,78.60
2018-03-07T09:29:57.458Z,78.80
2018-03-07T09:32:24.516Z,78.90
2018-03-07T09:34:51.567Z,79.00
2018-03-07T09:37:18.406Z,79.30
2018-03-07T09:39:45.353Z,79.20
2018-03-07T09:42:12.298Z,78.90
2018-03-07T09:44:39.265Z,77.50
2018-03-07T09:47:06.191Z,77.50
2018-03-07T09:49:33.139Z,78.20
2018-03-07T09:51:59.949Z,78.30
2018-03-07T09:54:27.040Z,77.80
2018-03-07T09:56:53.981Z,77.70
2018-03-07T09:59:20.934Z,78.10
2018-03-07T10:01:47.744Z,78.20
2018-03-07T10:04:14.588Z,77.70
2018-03-07T10:06:41.458Z,77.30
2018-03-07T10:09:08.520Z,74.80
2018-03-07T10:11:35.483Z,72.50
2018-03-07T10:14:02.512Z,72.40
2018-03-07T10:16:29.437Z,72.50
2018-03-07T10:18:56.502Z,69.60
2018-03-07T10:21:23.464Z,69.50
2018-03-07T10:23:52.041Z,68.50
2018-03-07T10:26:19.091Z,68.40
2018-03-07T10:28:46.140Z,67.10
2018-03-07T10:31:13.184Z,66.50
2018-03-07T10:33:40.240Z,63.50
2018-03-07T10:36:07.186Z,63.60
2018-03-07T10:38:34.331Z,64.60
2018-03-07T10:41:01.174Z,62.70
2018-03-07T10:43:28.121Z,70.70
2018-03-07T10:45:54.933Z,70.20
2018-03-07T10:48:21.808Z,68.60
2018-03-07T10:50:48.773Z,70.90
2018-03-07T10:53:15.600Z,72.80
2018-03-07T10:55:42.448Z,73.60
2018-03-07T10:58:09.509Z,72.30
2018-03-07T11:00:36.657Z,71.10
2018-03-07T11:03:05.234Z,69.70
2018-03-07T11:05:32.293Z,69.00
2018-03-07T11:07:59.128Z,70.30
2018-03-07T11:10:26.184Z,71.20
2018-03-07T11:12:53.334Z,70.30
2018-03-07T11:15:39.819Z,63.70
2018-03-07T11:18:06.781Z,58.60
2018-03-07T11:20:34.397Z,54.50
2018-03-07T11:23:03.858Z,53.40
2018-03-07T11:25:30.692Z,53.40
2018-03-07T11:27:57.605Z,52.30
2018-03-07T11:30:25.009Z,52.20
2018-03-07T11:32:51.839Z,50.60
2018-03-07T11:35:18.665Z,49.50
2018-03-07T11:37:45.434Z,48.60
2018-03-07T11:40:12.389Z,47.80
2018-03-07T11:42:39.320Z,47.10
2018-03-07T11:45:06.294Z,47.80
2018-03-07T11:47:34.145Z,49.70
2018-03-07T11:50:01.091Z,49.70
2018-03-07T11:52:28.034Z,50.10
2018-03-07T11:54:55.089Z,50.80
2018-03-07T11:57:22.025Z,51.40
2018-03-07T11:59:49.091Z,50.90
2018-03-07T12:02:23.200Z,51.70
2018-03-07T12:04:50.136Z,52.30
2018-03-07T12:07:16.991Z,53.60
2018-03-07T12:09:43.931Z,53.60
2018-03-07T12:12:10.877Z,52.80
2018-03-07T12:14:56.912Z,52.00
2018-03-07T12:17:24.473Z,54.00
2018-03-07T12:19:51.484Z,54.00
2018-03-07T12:22:18.431Z,53.30
2018-03-07T12:24:45.350Z,53.20
2018-03-07T12:27:12.178Z,53.60
2018-03-07T12:29:39.165Z,53.60
2018-03-07T12:32:21.072Z,53.10
2018-03-07T12:34:48.009Z,52.20
2018-03-07T12:37:14.959Z,53.30
2018-03-07T12:39:41.967Z,52.80
2018-03-07T12:42:09.643Z,53.40
2018-03-07T12:44:36.619Z,53.40
2018-03-07T12:47:03.679Z,52.50
2018-03-07T12:49:30.500Z,53.00
2018-03-07T12:51:57.312Z,52.80
2018-03-07T12:54:25.133Z,54.00
2018-03-07T12:56:52.046Z,54.00
2018-03-07T12:59:18.820Z,53.70
2018-03-07T13:01:45.845Z,52.10
2018-03-07T13:04:12.851Z,52.00
2018-03-07T13:06:40.787Z,49.10
2018-03-07T13:09:07.728Z,49.10
2018-03-07T13:11:34.783Z,49.00
2018-03-07T13:14:01.833Z,47.80
2018-03-07T13:16:28.902Z,47.80
2018-03-07T13:19:01.538Z,49.00
2018-03-07T13:21:28.503Z,48.90
2018-03-07T13:23:55.412Z,47.40
2018-03-07T13:26:22.507Z,47.60
2018-03-07T13:28:49.556Z,47.50
2018-03-07T13:31:16.467Z,47.40
2018-03-07T13:33:43.552Z,48.20
2018-03-07T13:36:10.602Z,47.80
2018-03-07T13:38:37.651Z,48.00
2018-03-07T13:41:04.803Z,48.30
2018-03-07T13:43:31.852Z,47.60
2018-03-07T13:45:58.792Z,45.60
2018-03-07T13:48:25.639Z,45.60
2018-03-07T13:50:52.553Z,45.40
2018-03-07T13:53:19.426Z,43.90
2018-03-07T13:55:46.375Z,43.10
2018-03-07T13:58:13.220Z,43.20
2018-03-07T14:00:40.187Z,41.90
2018-03-07T14:03:07.008Z,41.50
2018-03-07T14:05:33.875Z,41.20
2018-03-07T14:08:00.727Z,42.40
2018-03-07T14:10:27.582Z,40.70
2018-03-07T14:12:55.174Z,42.00
2018-03-07T14:15:53.445Z,42.00
2018-03-07T14:18:21.039Z,41.70
2018-03-07T14:20:47.892Z,41.70
2018-03-07T14:23:14.688Z,41.00
2018-03-07T14:25:42.351Z,39.60
2018-03-07T14:28:09.995Z,39.80
2018-03-07T14:30:36.856Z,39.70
2018-03-07T14:33:04.772Z,39.60
2018-03-07T14:35:31.629Z,39.70
2018-03-07T14:37:58.500Z,38.90
2018-03-07T14:40:25.739Z,37.60
2018-03-07T14:42:52.576Z,37.70
2018-03-07T14:45:19.732Z,37.90
2018-03-07T14:47:46.669Z,38.30
2018-03-07T14:50:20.900Z,38.40
2018-03-07T14:52:47.937Z,39.30
2018-03-07T14:55:14.879Z,39.20
2018-03-07T14:57:41.940Z,39.40
2018-03-07T15:00:08.806Z,38.60
2018-03-07T15:02:35.728Z,37.90
2018-03-07T15:05:02.771Z,36.80
2018-03-07T15:07:30.359Z,37.80
2018-03-07T15:09:57.390Z,37.70
2018-03-07T15:12:24.259Z,38.10
2018-03-07T15:15:12.942Z,36.80
2018-03-07T15:17:40.042Z,36.20
2018-03-07T15:20:06.832Z,38.90
2018-03-07T15:22:34.507Z,38.70
2018-03-07T15:25:01.447Z,38.60
2018-03-07T15:27:28.427Z,39.10
2018-03-07T15:29:55.494Z,38.20
2018-03-07T15:32:22.416Z,38.70
2018-03-07T15:34:49.491Z,39.50
2018-03-07T15:37:16.449Z,40.10
2018-03-07T15:39:44.305Z,40.90
2018-03-07T15:42:11.223Z,40.90
2018-03-07T15:44:38.185Z,41.70
2018-03-07T15:47:05.141Z,42.80
2018-03-07T15:49:31.941Z,41.70
2018-03-07T15:51:59.655Z,42.00
2018-03-07T15:54:26.493Z,41.90
2018-03-07T15:56:53.541Z,41.90
2018-03-07T15:59:20.701Z,42.20
2018-03-07T16:01:47.750Z,42.10
2018-03-07T16:04:14.801Z,42.20
2018-03-07T16:06:41.740Z,42.70
2018-03-07T16:09:08.529Z,43.10
2018-03-07T16:11:36.247Z,43.40
2018-03-07T16:14:03.307Z,43.30
2018-03-07T16:16:37.780Z,44.30
2018-03-07T16:19:04.607Z,44.50
2018-03-07T16:21:32.439Z,44.70
2018-03-07T16:23:59.379Z,44.60
2018-03-07T16:26:26.436Z,45.20
2018-03-07T16:28:53.254Z,45.60
2018-03-07T16:31:20.052Z,45.80
2018-03-07T16:33:47.763Z,46.20
2018-03-07T16:36:14.619Z,46.20
2018-03-07T16:38:41.580Z,46.20
2018-03-07T16:41:08.417Z,46.30
2018-03-07T16:43:35.362Z,46.60
2018-03-07T16:46:02.157Z,47.00
2018-03-07T16:48:29.713Z,47.40
2018-03-07T16:50:57.333Z,47.60
2018-03-07T16:53:24.255Z,47.60
2018-03-07T16:55:51.072Z,47.60
2018-03-07T16:58:18.668Z,48.00
2018-03-07T17:00:45.550Z,48.00
2018-03-07T17:03:13.201Z,48.80
2018-03-07T17:05:40.047Z,48.60
2018-03-07T17:08:06.891Z,48.80
2018-03-07T17:10:33.722Z,49.00
2018-03-07T17:13:00.548Z,49.30
2018-03-07T17:18:34.736Z,49.70
2018-03-07T17:21:01.584Z,49.90
2018-03-07T17:23:43.288Z,50.20
2018-03-07T17:26:10.828Z,50.60
2018-03-07T17:28:37.679Z,50.60
2018-03-07T17:31:04.505Z,50.90
2018-03-07T17:33:31.319Z,50.80
2018-03-07T17:35:58.253Z,51.40
2018-03-07T17:38:25.114Z,52.10
2018-03-07T17:40:51.996Z,52.50
2018-03-07T17:43:18.878Z,52.90
2018-03-07T17:45:46.523Z,53.50
2018-03-07T17:48:14.113Z,53.60
2018-03-07T17:50:40.979Z,53.50
2018-03-07T17:53:07.848Z,53.80
2018-03-07T17:55:34.722Z,53.90
2018-03-07T17:58:02.372Z,54.00
2018-03-07T18:00:29.215Z,53.90
2018-03-07T18:02:56.098Z,54.10
2018-03-07T18:05:23.663Z,54.20
2018-03-07T18:07:50.530Z,54.20
2018-03-07T18:10:17.405Z,54.70
2018-03-07T18:12:44.252Z,54.70
2018-03-07T18:15:39.088Z,54.90
2018-03-07T18:18:05.933Z,55.70
2018-03-07T18:20:33.537Z,55.00
2018-03-07T18:23:00.342Z,55.00
2018-03-07T18:25:27.926Z,55.40
2018-03-07T18:27:54.812Z,55.30
2018-03-07T18:30:21.669Z,55.50
2018-03-07T18:32:49.252Z,55.50
2018-03-07T18:35:16.854Z,55.60
2018-03-07T18:37:43.689Z,55.50
2018-03-07T18:40:10.512Z,55.50
2018-03-07T18:42:37.708Z,55.50
2018-03-07T18:45:04.618Z,55.60
2018-03-07T18:47:31.505Z,55.60
2018-03-07T18:49:58.382Z,55.80
2018-03-07T18:52:26.217Z,55.80
2018-03-07T18:54:53.179Z,55.70
2018-03-07T18:57:20.756Z,56.00
2018-03-07T18:59:48.379Z,56.20
2018-03-07T19:02:15.451Z,56.20
2018-03-07T19:04:42.486Z,56.50
2018-03-07T19:07:10.452Z,56.50
2018-03-07T19:09:37.384Z,56.50
2018-03-07T19:12:04.352Z,56.50
2018-03-07T19:14:47.580Z,56.50
2018-03-07T19:17:17.556Z,56.70
2018-03-07T19:19:44.442Z,56.70
2018-03-07T19:22:11.322Z,56.70
2018-03-07T19:24:38.868Z,56.90
2018-03-07T19:27:05.772Z,56.90
2018-03-07T19:29:32.724Z,57.10
2018-03-07T19:31:59.587Z,57.20
2018-03-07T19:34:26.397Z,57.30
2018-03-07T19:36:53.385Z,57.30
2018-03-07T19:39:20.637Z,57.60
2018-03-07T19:41:47.758Z,57.70
2018-03-07T19:44:15.656Z,58.00
2018-03-07T19:46:42.709Z,57.90
2018-03-07T19:49:09.644Z,58.00
2018-03-07T19:51:36.570Z,58.00
2018-03-07T19:54:03.433Z,58.20
2018-03-07T19:56:30.364Z,58.10
2018-03-07T19:58:57.230Z,58.10
2018-03-07T20:01:24.180Z,58.30
2018-03-07T20:03:51.121Z,58.40
2018-03-07T20:06:18.182Z,58.40
2018-03-07T20:08:45.008Z,58.40
2018-03-07T20:11:16.889Z,58.30
2018-03-07T20:13:43.701Z,58.30
2018-03-07T20:19:10.187Z,58.00
2018-03-07T20:21:37.107Z,58.10
2018-03-07T20:24:04.070Z,58.10
2018-03-07T20:26:31.236Z,58.00
2018-03-07T20:28:58.282Z,58.10
2018-03-07T20:31:25.330Z,58.20
2018-03-07T20:33:52.270Z,58.30
2018-03-07T20:36:19.150Z,58.60
2018-03-07T20:38:46.888Z,58.80
2018-03-07T20:41:13.801Z,58.70
2018-03-07T20:43:40.669Z,58.70
2018-03-07T20:46:07.629Z,58.90
2018-03-07T20:48:34.565Z,59.00
2018-03-07T20:51:01.494Z,59.00
2018-03-07T20:53:28.497Z,59.00
2018-03-07T20:55:56.124Z,58.90
2018-03-07T20:58:24.170Z,58.90
2018-03-07T21:00:51.046Z,58.90
2018-03-07T21:03:18.398Z,58.70
2018-03-07T21:05:45.454Z,58.70
2018-03-07T21:08:12.504Z,58.70
2018-03-07T21:10:39.556Z,58.60
2018-03-07T21:13:06.494Z,58.60
2018-03-07T21:22:10.694Z,58.50
2018-03-07T21:24:37.819Z,58.40
2018-03-07T21:27:43.488Z,58.40
2018-03-07T21:30:10.336Z,58.40
2018-03-07T21:32:37.269Z,58.40
2018-03-07T21:35:04.416Z,58.70
2018-03-07T21:37:31.356Z,58.80
2018-03-07T21:39:58.300Z,59.10
2018-03-07T21:42:26.172Z,59.20
2018-03-07T21:44:53.114Z,59.30
2018-03-07T21:47:20.097Z,59.30
2018-03-07T21:49:47.864Z,58.80
2018-03-07T21:52:15.494Z,58.60
2018-03-07T21:54:42.543Z,58.60
2018-03-07T21:57:09.503Z,58.70
2018-03-07T21:59:36.584Z,58.80
2018-03-07T22:02:03.703Z,58.80
2018-03-07T22:04:30.507Z,58.60
2018-03-07T22:06:57.388Z,58.50
2018-03-07T22:09:24.465Z,58.50
2018-03-07T22:11:51.375Z,58.40
2018-03-07T22:14:18.923Z,58.40
2018-03-07T22:19:55.434Z,58.10
2018-03-07T22:22:23.215Z,58.20
2018-03-07T22:24:50.120Z,58.30
2018-03-07T22:27:17.099Z,58.30
2018-03-07T22:29:44.039Z,58.10
2018-03-07T22:32:11.109Z,57.90
2018-03-07T22:34:37.931Z,58.00
2018-03-07T22:37:04.989Z,58.00
2018-03-07T22:39:31.804Z,58.10
2018-03-07T22:41:58.856Z,58.20
2018-03-07T22:44:25.572Z,58.40
2018-03-07T22:46:53.180Z,58.30
2018-03-07T22:51:53.525Z,58.20
2018-03-07T22:54:20.498Z,58.30
2018-03-07T22:56:47.530Z,58.50
2018-03-07T22:59:14.470Z,58.50
2018-03-07T23:01:41.264Z,59.00
2018-03-07T23:04:08.872Z,58.40
2018-03-07T23:06:35.719Z,58.40
2018-03-07T23:09:02.585Z,58.50
2018-03-07T23:11:29.613Z,58.70
2018-03-07T23:13:56.573Z,58.60
2018-03-07T23:16:23.617Z,58.80
2018-03-07T23:18:50.666Z,58.80
2018-03-07T23:21:17.719Z,58.90
2018-03-07T23:23:44.538Z,58.90
2018-03-07T23:26:11.398Z,59.00
2018-03-07T23:28:38.329Z,59.10
2018-03-07T23:31:05.300Z,59.10
2018-03-07T23:33:32.247Z,59.20
2018-03-07T23:35:59.024Z,59.30
2018-03-07T23:38:26.651Z,59.30
2018-03-07T23:40:53.604Z,59.30
2018-03-07T23:43:20.436Z,59.40
2018-03-07T23:45:47.486Z,59.60
2018-03-07T23:48:14.251Z,59.60
2018-03-07T23:50:41.286Z,59.60
2018-03-07T23:53:08.333Z,59.60
2018-03-07T23:55:35.279Z,59.60
2018-03-07T23:58:02.329Z,59.70
